createdAt,value
2023-03-05T00:01:22.656Z,3.90
2023-03-05T00:03:49.145Z,3.95
2023-03-05T00:06:17.394Z,3.94
2023-03-05T00:08:44.124Z,3.94
2023-03-05T00:11:12.203Z,3.98
2023-03-05T00:13:39.467Z,4.00
2023-03-05T00:16:09.053Z,3.85
2023-03-05T00:18:35.511Z,3.82
2023-03-05T00:21:02.510Z,3.89
2023-03-05T00:23:28.898Z,3.81
2023-03-05T00:25:55.302Z,3.90
2023-03-05T00:28:22.141Z,3.99
2023-03-05T00:30:48.694Z,3.89
2023-03-05T00:33:15.136Z,3.85
2023-03-05T00:35:46.469Z,3.79
2023-03-05T00:38:13.074Z,3.76
2023-03-05T00:40:41.252Z,3.73
2023-03-05T00:43:08.590Z,3.71
2023-03-05T00:45:35.262Z,3.64
2023-03-05T00:48:02.269Z,3.70
2023-03-05T00:50:28.742Z,3.61
2023-03-05T00:52:55.163Z,3.70
2023-03-05T00:55:21.971Z,3.62
2023-03-05T00:57:48.390Z,3.58
2023-03-05T01:00:15.801Z,3.46
2023-03-05T01:02:42.259Z,3.61
2023-03-05T01:05:12.667Z,3.47
2023-03-05T01:07:39.370Z,3.57
2023-03-05T01:10:07.045Z,3.54
2023-03-05T01:12:33.486Z,3.54
2023-03-05T01:15:00.171Z,3.49
2023-03-05T01:17:26.575Z,3.40
2023-03-05T01:19:53.055Z,3.43
2023-03-05T01:22:19.425Z,3.39
2023-03-05T01:24:45.851Z,3.34
2023-03-05T01:27:12.240Z,3.34
2023-03-05T01:29:38.810Z,3.36
2023-03-05T01:32:05.849Z,3.29
2023-03-05T01:34:32.339Z,3.31
2023-03-05T01:36:58.763Z,3.25
2023-03-05T01:39:25.182Z,3.33
2023-03-05T01:41:51.606Z,3.20
2023-03-05T01:44:22.959Z,3.13
2023-03-05T01:46:49.403Z,3.19
2023-03-05T01:49:27.889Z,3.08
2023-03-05T01:52:19.986Z,2.96
2023-03-05T01:54:50.308Z,3.07
2023-03-05T01:57:24.786Z,3.05
2023-03-05T01:59:55.843Z,3.03
2023-03-05T02:02:22.304Z,2.91
2023-03-05T02:05:11.172Z,2.94
2023-03-05T02:07:40.122Z,2.83
2023-03-05T02:10:16.268Z,2.90
2023-03-05T02:12:42.968Z,2.85
2023-03-05T02:15:10.149Z,2.82
2023-03-05T02:17:36.539Z,2.90
2023-03-05T02:20:08.501Z,2.92
2023-03-05T02:22:34.885Z,2.73
2023-03-05T02:25:01.400Z,2.89
2023-03-05T02:27:35.562Z,2.85
2023-03-05T02:30:02.520Z,2.80
2023-03-05T02:32:28.943Z,2.81
2023-03-05T02:34:55.563Z,2.89
2023-03-05T02:37:22.117Z,2.85
2023-03-05T02:39:51.029Z,2.76
2023-03-05T02:42:17.468Z,2.66
2023-03-05T02:44:43.862Z,2.72
2023-03-05T02:47:10.307Z,2.73
2023-03-05T02:49:37.133Z,2.75
2023-03-05T02:52:03.801Z,2.79
2023-03-05T02:54:30.218Z,2.66
2023-03-05T02:56:56.673Z,2.61
2023-03-05T02:59:23.198Z,2.71
2023-03-05T03:01:49.605Z,2.73
2023-03-05T03:04:16.069Z,2.81
2023-03-05T03:06:42.474Z,2.87
2023-03-05T03:09:08.855Z,2.86
2023-03-05T03:11:35.257Z,2.79
2023-03-05T03:14:01.684Z,2.85
2023-03-05T03:16:28.132Z,2.74
2023-03-05T03:18:54.584Z,2.71
2023-03-05T03:21:24.427Z,2.76
2023-03-05T03:23:51.257Z,2.71
2023-03-05T03:26:17.873Z,2.70
2023-03-05T03:28:44.472Z,2.73
2023-03-05T03:31:11.165Z,2.65
2023-03-05T03:33:37.568Z,2.60
2023-03-05T03:36:04.870Z,2.63
2023-03-05T03:38:31.320Z,2.61
2023-03-05T03:40:57.716Z,2.61
2023-03-05T03:43:24.129Z,2.53
2023-03-05T03:45:50.553Z,2.51
2023-03-05T03:48:17.078Z,2.41
2023-03-05T03:50:44.299Z,2.42
2023-03-05T03:53:14.368Z,2.40
2023-03-05T03:55:46.553Z,2.35
2023-03-05T03:58:13.018Z,2.44
2023-03-05T04:00:40.635Z,2.44
2023-03-05T04:03:07.227Z,2.40
2023-03-05T04:05:33.672Z,2.45
2023-03-05T04:08:01.385Z,2.44
2023-03-05T04:10:27.801Z,2.32
2023-03-05T04:12:54.185Z,2.33
2023-03-05T04:15:20.948Z,2.29
2023-03-05T04:17:47.386Z,2.31
2023-03-05T04:20:13.812Z,2.29
2023-03-05T04:22:40.262Z,2.29
2023-03-05T04:25:08.314Z,2.23
2023-03-05T04:27:34.844Z,2.26
2023-03-05T04:30:01.605Z,2.18
2023-03-05T04:32:29.786Z,2.18
2023-03-05T04:34:57.187Z,2.23
2023-03-05T04:37:25.390Z,2.21
2023-03-05T04:39:52.954Z,2.15
2023-03-05T04:42:20.105Z,2.18
2023-03-05T04:44:48.945Z,2.22
2023-03-05T04:47:16.083Z,2.05
2023-03-05T04:49:42.640Z,2.12
2023-03-05T04:52:11.238Z,2.18
2023-03-05T04:54:37.641Z,2.14
2023-03-05T04:57:04.199Z,2.20
2023-03-05T04:59:30.593Z,2.16
2023-03-05T05:01:57.074Z,2.18
2023-03-05T05:04:23.754Z,2.21
2023-03-05T05:06:50.158Z,2.13
2023-03-05T05:09:16.558Z,2.10
2023-03-05T05:11:42.953Z,2.19
2023-03-05T05:14:09.356Z,2.16
2023-03-05T05:16:35.908Z,2.23
2023-03-05T05:19:02.405Z,2.32
2023-03-05T05:21:28.806Z,2.28
2023-03-05T05:23:55.179Z,2.34
2023-03-05T05:26:21.588Z,2.18
2023-03-05T05:28:48.921Z,2.19
2023-03-05T05:31:17.105Z,2.20
2023-03-05T05:33:44.127Z,2.26
2023-03-05T05:36:13.913Z,2.22
2023-03-05T05:38:40.451Z,2.25
2023-03-05T05:41:15.548Z,2.24
2023-03-05T05:43:42.277Z,2.20
2023-03-05T05:46:12.929Z,2.26
2023-03-05T05:48:39.748Z,2.20
2023-03-05T05:51:08.765Z,2.28
2023-03-05T05:53:35.716Z,2.31
2023-03-05T05:56:05.142Z,2.30
2023-03-05T05:58:31.557Z,2.40
2023-03-05T06:00:58.014Z,2.36
2023-03-05T06:03:24.533Z,2.44
2023-03-05T06:05:52.021Z,2.41
2023-03-05T06:08:19.135Z,2.40
2023-03-05T06:10:45.590Z,2.40
2023-03-05T06:13:11.985Z,2.46
2023-03-05T06:15:38.408Z,2.44
2023-03-05T06:18:04.817Z,2.38
2023-03-05T06:20:31.211Z,2.49
2023-03-05T06:22:57.622Z,2.49
2023-03-05T06:25:24.010Z,2.50
2023-03-05T06:27:50.416Z,2.46
2023-03-05T06:30:16.860Z,2.45
2023-03-05T06:32:43.264Z,2.56
2023-03-05T06:35:09.689Z,2.54
2023-03-05T06:37:36.099Z,2.56
2023-03-05T06:40:02.556Z,2.56
2023-03-05T06:42:28.953Z,2.58
2023-03-05T06:44:55.331Z,2.72
2023-03-05T06:47:21.724Z,2.65
2023-03-05T06:49:48.106Z,2.68
2023-03-05T06:52:14.550Z,2.70
2023-03-05T06:54:40.941Z,2.71
2023-03-05T06:57:07.344Z,2.74
2023-03-05T06:59:33.744Z,2.70
2023-03-05T07:02:00.145Z,2.57
2023-03-05T07:04:26.588Z,2.61
2023-03-05T07:06:53.012Z,2.74
2023-03-05T07:09:19.843Z,2.75
2023-03-05T07:11:46.250Z,2.78
2023-03-05T07:14:12.817Z,2.71
2023-03-05T07:16:39.235Z,2.79
2023-03-05T07:19:07.426Z,2.85
2023-03-05T07:21:36.065Z,2.76
2023-03-05T07:24:05.043Z,2.82
2023-03-05T07:26:33.552Z,2.80
2023-03-05T07:29:00.377Z,2.83
2023-03-05T07:31:30.753Z,2.83
2023-03-05T07:33:58.745Z,2.95
2023-03-05T07:36:26.572Z,2.87
2023-03-05T07:38:53.179Z,2.92
2023-03-05T07:41:21.037Z,3.03
2023-03-05T07:43:49.498Z,3.10
2023-03-05T07:46:18.914Z,3.15
2023-03-05T07:48:45.416Z,2.97
2023-03-05T07:51:18.234Z,3.07
2023-03-05T07:53:46.113Z,3.03
2023-03-05T07:56:13.000Z,3.11
2023-03-05T07:58:39.596Z,3.10
2023-03-05T08:01:13.867Z,3.02
2023-03-05T08:03:41.447Z,3.03
2023-03-05T08:06:08.445Z,3.29
2023-03-05T08:08:36.179Z,3.27
2023-03-05T08:11:05.055Z,3.41
2023-03-05T08:13:31.779Z,3.47
2023-03-05T08:15:58.190Z,3.43
2023-03-05T08:18:24.801Z,3.59
2023-03-05T08:20:51.230Z,3.60
2023-03-05T08:23:17.620Z,3.51
2023-03-05T08:25:44.462Z,3.60
2023-03-05T08:28:10.861Z,3.53
2023-03-05T08:30:37.245Z,3.52
2023-03-05T08:33:03.655Z,3.68
2023-03-05T08:35:30.124Z,3.77
2023-03-05T08:37:56.564Z,3.89
2023-03-05T08:40:22.992Z,3.92
2023-03-05T08:42:51.869Z,3.71
2023-03-05T08:45:18.274Z,3.96
2023-03-05T08:47:44.678Z,4.01
2023-03-05T08:50:11.821Z,3.92
2023-03-05T08:52:38.357Z,3.84
2023-03-05T08:55:04.930Z,4.10
2023-03-05T08:57:31.334Z,4.46
2023-03-05T08:59:57.724Z,4.42
2023-03-05T09:02:24.131Z,4.44
2023-03-05T09:04:50.580Z,4.45
2023-03-05T09:07:17.069Z,4.33
2023-03-05T09:09:43.463Z,4.37
2023-03-05T09:12:12.204Z,4.34
2023-03-05T09:14:40.120Z,4.58
2023-03-05T09:17:06.569Z,4.68
2023-03-05T09:19:32.953Z,4.55
2023-03-05T09:21:59.341Z,4.67
2023-03-05T09:24:25.754Z,4.48
2023-03-05T09:26:52.141Z,4.42
2023-03-05T09:29:18.584Z,4.55
2023-03-05T09:31:45.002Z,4.59
2023-03-05T09:34:11.802Z,4.52
2023-03-05T09:36:38.409Z,4.65
2023-03-05T09:39:06.945Z,4.57
2023-03-05T09:41:51.423Z,4.61
2023-03-05T09:44:55.004Z,4.69
2023-03-05T09:48:04.773Z,4.83
2023-03-05T09:50:38.959Z,4.86
2023-03-05T09:53:14.057Z,4.88
2023-03-05T09:55:45.565Z,4.94
2023-03-05T09:58:19.742Z,4.93
2023-03-05T10:00:50.251Z,4.97
2023-03-05T10:03:27.237Z,4.75
2023-03-05T10:06:17.945Z,4.84
2023-03-05T10:08:57.961Z,4.77
2023-03-05T10:11:39.890Z,4.95
2023-03-05T10:14:13.789Z,5.08
2023-03-05T10:16:55.108Z,4.89
2023-03-05T10:19:45.601Z,4.75
2023-03-05T10:22:24.594Z,4.94
2023-03-05T10:24:55.948Z,4.91
2023-03-05T10:27:43.064Z,4.82
2023-03-05T10:30:21.131Z,5.13
2023-03-05T10:32:55.997Z,5.21
2023-03-05T10:35:39.313Z,5.10
2023-03-05T10:38:34.244Z,5.14
2023-03-05T10:41:16.746Z,5.30
2023-03-05T10:44:21.201Z,5.10
2023-03-05T10:46:48.910Z,5.10
2023-03-05T10:49:28.566Z,5.21
2023-03-05T10:52:11.427Z,5.26
2023-03-05T10:54:41.745Z,5.35
2023-03-05T10:57:13.964Z,5.44
2023-03-05T10:59:47.858Z,5.33
2023-03-05T11:02:14.351Z,5.40
2023-03-05T11:04:41.456Z,5.32
2023-03-05T11:07:32.324Z,5.28
2023-03-05T11:10:18.155Z,5.20
2023-03-05T11:12:45.702Z,5.31
2023-03-05T11:15:12.050Z,5.18
2023-03-05T11:17:39.774Z,5.27
2023-03-05T11:20:27.756Z,5.44
2023-03-05T11:23:25.323Z,5.39
2023-03-05T11:26:01.311Z,5.38
2023-03-05T11:28:33.723Z,5.21
2023-03-05T11:31:07.351Z,5.25
2023-03-05T11:33:36.203Z,5.42
2023-03-05T11:36:13.689Z,5.55
2023-03-05T11:38:52.108Z,5.51
2023-03-05T11:41:24.294Z,5.53
2023-03-05T11:43:53.220Z,5.50
2023-03-05T11:46:21.736Z,5.53
2023-03-05T11:48:48.484Z,5.50
2023-03-05T11:51:37.036Z,5.21
2023-03-05T11:54:08.622Z,5.08
2023-03-05T11:56:37.309Z,4.97
2023-03-05T11:59:13.474Z,5.13
2023-03-05T12:01:45.784Z,5.18
2023-03-05T12:04:12.370Z,5.21
2023-03-05T12:06:43.051Z,5.11
2023-03-05T12:09:40.894Z,5.23
2023-03-05T12:13:04.853Z,5.53
2023-03-05T12:16:08.882Z,5.61
2023-03-05T12:19:00.152Z,5.59
2023-03-05T12:21:43.678Z,5.66
2023-03-05T12:24:27.911Z,5.75
2023-03-05T12:26:57.007Z,5.73
2023-03-05T12:29:29.685Z,5.53
2023-03-05T12:31:57.299Z,5.61
2023-03-05T12:34:39.278Z,5.64
2023-03-05T12:37:12.367Z,5.58
2023-03-05T12:39:45.183Z,5.57
2023-03-05T12:42:29.834Z,5.29
2023-03-05T12:45:19.219Z,5.12
2023-03-05T12:48:12.535Z,4.89
2023-03-05T12:50:38.931Z,4.67
2023-03-05T12:53:13.349Z,4.66
2023-03-05T12:55:49.916Z,4.76
2023-03-05T12:58:40.503Z,4.85
2023-03-05T13:01:31.838Z,5.08
2023-03-05T13:04:00.685Z,4.86
2023-03-05T13:06:31.021Z,4.90
2023-03-05T13:09:00.654Z,5.05
2023-03-05T13:11:29.714Z,5.01
2023-03-05T13:13:56.657Z,4.61
2023-03-05T13:16:36.717Z,4.64
2023-03-05T13:19:03.488Z,4.80
2023-03-05T13:21:32.514Z,4.87
2023-03-05T13:24:01.655Z,5.00
2023-03-05T13:26:39.375Z,4.76
2023-03-05T13:29:07.304Z,4.71
2023-03-05T13:31:42.279Z,4.63
2023-03-05T13:34:22.363Z,4.80
2023-03-05T13:36:56.737Z,4.63
2023-03-05T13:39:27.381Z,4.78
2023-03-05T13:41:59.076Z,4.55
2023-03-05T13:44:25.580Z,4.80
2023-03-05T13:46:51.970Z,4.87
2023-03-05T13:49:22.971Z,4.77
2023-03-05T13:51:54.688Z,4.99
2023-03-05T13:54:23.241Z,5.09
2023-03-05T13:56:53.303Z,4.93
2023-03-05T13:59:22.929Z,4.94
2023-03-05T14:01:52.350Z,4.95
2023-03-05T14:04:22.727Z,5.04
2023-03-05T14:06:58.394Z,4.97
2023-03-05T14:09:47.050Z,4.91
2023-03-05T14:12:27.088Z,4.87
2023-03-05T14:14:53.565Z,5.00
2023-03-05T14:17:33.914Z,4.86
2023-03-05T14:20:19.198Z,4.61
2023-03-05T14:22:50.927Z,4.57
2023-03-05T14:25:43.800Z,4.71
2023-03-05T14:28:17.184Z,4.60
2023-03-05T14:30:48.552Z,4.50
2023-03-05T14:33:31.674Z,4.59
2023-03-05T14:36:00.624Z,4.34
2023-03-05T14:38:33.469Z,4.42
2023-03-05T14:41:34.742Z,4.49
2023-03-05T14:44:01.658Z,4.38
2023-03-05T14:46:28.913Z,4.41
2023-03-05T14:48:55.394Z,4.50
2023-03-05T14:51:21.919Z,4.36
2023-03-05T14:53:50.990Z,4.29
2023-03-05T14:56:23.758Z,4.31
2023-03-05T14:58:50.266Z,4.37
2023-03-05T15:01:16.697Z,4.43
2023-03-05T15:03:43.441Z,4.41
2023-03-05T15:06:24.048Z,4.43
2023-03-05T15:08:52.573Z,4.42
2023-03-05T15:11:18.977Z,4.45
2023-03-05T15:13:45.449Z,4.39
2023-03-05T15:16:16.340Z,4.40
2023-03-05T15:18:42.952Z,4.29
2023-03-05T15:21:09.496Z,4.38
2023-03-05T15:23:38.129Z,4.33
2023-03-05T15:26:06.461Z,4.20
2023-03-05T15:28:35.981Z,4.34
2023-03-05T15:31:03.611Z,4.19
2023-03-05T15:33:30.314Z,4.15
2023-03-05T15:35:57.188Z,4.06
2023-03-05T15:38:24.560Z,4.15
2023-03-05T15:40:51.105Z,4.12
2023-03-05T15:43:19.023Z,4.14
2023-03-05T15:45:45.927Z,4.17
2023-03-05T15:48:12.462Z,4.12
2023-03-05T15:50:43.564Z,4.11
2023-03-05T15:53:12.596Z,4.24
2023-03-05T15:55:40.064Z,4.00
2023-03-05T15:58:07.211Z,4.11
2023-03-05T16:00:35.246Z,4.25
2023-03-05T16:03:01.665Z,4.32
2023-03-05T16:05:28.256Z,4.35
2023-03-05T16:07:55.632Z,4.30
2023-03-05T16:10:25.476Z,4.11
2023-03-05T16:13:01.314Z,4.17
2023-03-05T16:15:28.194Z,4.27
2023-03-05T16:17:56.433Z,4.26
2023-03-05T16:20:23.449Z,4.23
2023-03-05T16:22:50.016Z,4.19
2023-03-05T16:25:16.988Z,4.22
2023-03-05T16:27:43.397Z,4.19
2023-03-05T16:30:10.531Z,4.18
2023-03-05T16:32:38.187Z,3.99
2023-03-05T16:35:05.123Z,4.03
2023-03-05T16:37:31.677Z,4.00
2023-03-05T16:39:59.305Z,3.98
2023-03-05T16:42:25.834Z,3.89
2023-03-05T16:44:52.262Z,3.99
2023-03-05T16:47:18.669Z,3.94
2023-03-05T16:49:45.075Z,3.90
2023-03-05T16:52:18.762Z,3.88
2023-03-05T16:54:45.903Z,3.91
2023-03-05T16:57:12.351Z,3.92
2023-03-05T16:59:38.826Z,3.79
2023-03-05T17:02:05.613Z,3.78
2023-03-05T17:04:32.457Z,3.66
2023-03-05T17:06:58.855Z,3.65
2023-03-05T17:09:25.253Z,3.62
2023-03-05T17:11:52.489Z,3.60
2023-03-05T17:14:19.074Z,3.61
2023-03-05T17:16:45.553Z,3.68
2023-03-05T17:19:12.098Z,3.58
2023-03-05T17:21:41.884Z,3.59
2023-03-05T17:24:09.900Z,3.69
2023-03-05T17:26:36.481Z,3.68
2023-03-05T17:29:04.201Z,3.69
2023-03-05T17:31:30.650Z,3.50
2023-03-05T17:33:57.356Z,3.48
2023-03-05T17:36:24.427Z,3.58
2023-03-05T17:38:51.524Z,3.48
2023-03-05T17:41:18.772Z,3.52
2023-03-05T17:43:45.572Z,3.50
2023-03-05T17:46:12.503Z,3.43
2023-03-05T17:48:39.285Z,3.41
2023-03-05T17:51:11.558Z,3.42
2023-03-05T17:53:39.363Z,3.38
2023-03-05T17:56:07.872Z,3.40
2023-03-05T17:58:34.313Z,3.31
2023-03-05T18:01:00.788Z,3.35
2023-03-05T18:03:27.240Z,3.26
2023-03-05T18:05:53.881Z,3.22
2023-03-05T18:08:20.291Z,3.29
2023-03-05T18:10:46.731Z,3.27
2023-03-05T18:13:13.154Z,3.21
2023-03-05T18:15:47.284Z,3.15
2023-03-05T18:18:17.934Z,3.24
2023-03-05T18:20:45.064Z,3.20
2023-03-05T18:23:11.515Z,3.16
2023-03-05T18:25:38.035Z,3.09
2023-03-05T18:28:07.375Z,3.12
2023-03-05T18:30:34.664Z,3.11
2023-03-05T18:33:01.459Z,3.06
2023-03-05T18:35:29.275Z,3.01
2023-03-05T18:37:56.235Z,3.06
2023-03-05T18:40:24.794Z,3.07
2023-03-05T18:42:51.606Z,3.02
2023-03-05T18:45:20.652Z,3.03
2023-03-05T18:47:53.818Z,3.06
2023-03-05T18:50:22.166Z,3.04
2023-03-05T18:52:48.598Z,2.96
2023-03-05T18:55:20.742Z,2.96
2023-03-05T18:57:49.111Z,2.91
2023-03-05T19:00:17.924Z,3.01
2023-03-05T19:02:44.349Z,2.93
2023-03-05T19:05:12.281Z,3.05
2023-03-05T19:07:38.750Z,3.08
2023-03-05T19:10:09.908Z,3.02
2023-03-05T19:12:42.513Z,2.90
2023-03-05T19:15:10.165Z,3.00
2023-03-05T19:17:36.598Z,2.90
2023-03-05T19:20:06.380Z,2.97
2023-03-05T19:22:33.624Z,2.95
2023-03-05T19:25:00.146Z,2.91
2023-03-05T19:27:26.620Z,2.90
2023-03-05T19:29:53.574Z,2.92
2023-03-05T19:32:21.865Z,2.94
2023-03-05T19:34:48.503Z,3.00
2023-03-05T19:37:15.161Z,2.95
2023-03-05T19:39:41.770Z,2.90
2023-03-05T19:42:08.579Z,3.00
2023-03-05T19:44:35.091Z,2.95
2023-03-05T19:47:01.928Z,3.01
2023-03-05T19:49:28.320Z,3.02
2023-03-05T19:51:54.801Z,3.02
2023-03-05T19:54:22.683Z,3.08
2023-03-05T19:56:52.236Z,2.98
2023-03-05T19:59:21.081Z,3.00
2023-03-05T20:01:49.265Z,3.02
2023-03-05T20:04:21.635Z,3.01
2023-03-05T20:06:48.146Z,2.99
2023-03-05T20:09:15.065Z,3.02
2023-03-05T20:11:42.033Z,2.98
2023-03-05T20:14:09.153Z,2.97
2023-03-05T20:16:37.551Z,3.02
2023-03-05T20:19:06.203Z,3.05
2023-03-05T20:21:38.666Z,3.06
2023-03-05T20:24:09.785Z,3.12
2023-03-05T20:26:38.403Z,3.03
2023-03-05T20:29:05.808Z,3.02
2023-03-05T20:31:37.085Z,2.98
2023-03-05T20:34:09.597Z,2.93
2023-03-05T20:36:36.002Z,2.98
2023-03-05T20:39:03.983Z,2.98
2023-03-05T20:41:31.304Z,2.96
2023-03-05T20:43:57.754Z,3.00
2023-03-05T20:46:30.404Z,3.01
2023-03-05T20:48:59.682Z,3.03
2023-03-05T20:51:31.913Z,3.03
2023-03-05T20:54:02.539Z,2.92
2023-03-05T20:56:32.261Z,2.96
2023-03-05T20:59:04.936Z,2.85
2023-03-05T21:01:33.002Z,2.90
2023-03-05T21:04:00.334Z,2.87
2023-03-05T21:06:28.125Z,2.82
2023-03-05T21:08:55.248Z,2.89
2023-03-05T21:11:22.672Z,2.90
2023-03-05T21:13:49.062Z,2.89
2023-03-05T21:16:18.435Z,2.97
2023-03-05T21:34:44.548Z,2.83
2023-03-05T21:37:11.753Z,2.91
2023-03-05T21:39:38.142Z,2.80
2023-03-05T21:42:05.133Z,2.81
2023-03-05T21:44:31.919Z,2.80
2023-03-05T21:46:58.316Z,2.78
2023-03-05T21:49:24.707Z,2.90
2023-03-05T21:52:03.205Z,2.85
2023-03-05T21:54:29.609Z,2.90
2023-03-05T21:56:56.002Z,2.85
2023-03-05T21:59:22.394Z,2.89
2023-03-05T22:01:49.922Z,2.82
2023-03-05T22:04:17.219Z,2.82
2023-03-05T22:06:43.607Z,2.79
2023-03-05T22:09:10.182Z,2.82
2023-03-05T22:11:36.613Z,2.82
2023-03-05T22:14:03.019Z,2.85
2023-03-05T22:16:29.519Z,2.85
2023-03-05T22:18:55.956Z,2.85
2023-03-05T22:21:26.369Z,2.86
2023-03-05T22:23:54.329Z,2.78
2023-03-05T22:26:20.747Z,2.75
2023-03-05T22:28:47.168Z,2.81
2023-03-05T22:31:21.813Z,2.85
2023-03-05T22:33:48.631Z,2.83
2023-03-05T22:36:15.730Z,2.88
2023-03-05T22:38:42.736Z,2.97
2023-03-05T22:41:11.806Z,2.97
2023-03-05T22:43:38.563Z,3.02
2023-03-05T22:46:14.406Z,2.98
2023-03-05T22:48:41.151Z,3.00
2023-03-05T22:51:08.512Z,2.99
2023-03-05T22:53:35.456Z,3.07
2023-03-05T22:56:10.158Z,3.26
2023-03-05T22:58:37.023Z,3.33
2023-03-05T23:01:11.159Z,3.24
2023-03-05T23:03:37.625Z,3.21
2023-03-05T23:06:05.300Z,3.20
2023-03-05T23:08:31.723Z,3.21
2023-03-05T23:10:58.161Z,3.23
2023-03-05T23:13:24.572Z,3.23
2023-03-05T23:15:51.034Z,3.12
2023-03-05T23:18:17.447Z,3.21
2023-03-05T23:20:43.851Z,3.24
2023-03-05T23:23:10.258Z,3.15
2023-03-05T23:25:36.669Z,3.09
2023-03-05T23:28:03.868Z,3.02
2023-03-05T23:30:32.926Z,2.96
2023-03-05T23:33:04.384Z,2.92
2023-03-05T23:35:42.180Z,3.08
2023-03-05T23:38:12.815Z,3.14
2023-03-05T23:40:45.215Z,2.88
2023-03-05T23:43:12.129Z,2.74
2023-03-05T23:45:41.117Z,2.88
2023-03-05T23:48:07.652Z,2.61
2023-03-05T23:50:38.071Z,2.30
2023-03-05T23:53:05.575Z,2.18
2023-03-05T23:55:35.522Z,2.22
2023-03-05T23:58:03.025Z,2.47
